sensor_id;sensor_type;location;lat;lon;timestamp;P1;durP1;ratioP1;P2;durP2;ratioP2
27893;SDS011;15240;50.812;4.792;2024-01-25T00:00:29;48.03;;;9.27;;
27893;SDS011;15240;50.812;4.792;2024-01-25T00:02:55;57.47;;;9.37;;
27893;SDS011;15240;50.812;4.792;2024-01-25T00:05:21;51.50;;;8.67;;
27893;SDS011;15240;50.812;4.792;2024-01-25T00:07:47;51.50;;;10.13;;
27893;SDS011;15240;50.812;4.792;2024-01-25T00:10:14;58.03;;;10.13;;
27893;SDS011;15240;50.812;4.792;2024-01-25T00:12:40;43.53;;;9.23;;
27893;SDS011;15240;50.812;4.792;2024-01-25T00:15:07;49.83;;;9.37;;
27893;SDS011;15240;50.812;4.792;2024-01-25T00:17:33;45.37;;;7.80;;
27893;SDS011;15240;50.812;4.792;2024-01-25T00:19:59;49.67;;;8.47;;
27893;SDS011;15240;50.812;4.792;2024-01-25T00:22:25;52.40;;;9.50;;
27893;SDS011;15240;50.812;4.792;2024-01-25T00:24:51;55.30;;;9.77;;
27893;SDS011;15240;50.812;4.792;2024-01-25T00:27:17;53.50;;;9.13;;
27893;SDS011;15240;50.812;4.792;2024-01-25T00:29:43;59.87;;;9.17;;
27893;SDS011;15240;50.812;4.792;2024-01-25T00:32:09;53.90;;;9.27;;
27893;SDS011;15240;50.812;4.792;2024-01-25T00:34:35;58.30;;;9.43;;
27893;SDS011;15240;50.812;4.792;2024-01-25T00:37:02;59.90;;;11.13;;
27893;SDS011;15240;50.812;4.792;2024-01-25T00:39:28;55.53;;;9.17;;
27893;SDS011;15240;50.812;4.792;2024-01-25T00:41:57;47.43;;;8.77;;
27893;SDS011;15240;50.812;4.792;2024-01-25T00:44:24;51.80;;;9.17;;
27893;SDS011;15240;50.812;4.792;2024-01-25T00:46:51;57.33;;;8.80;;
27893;SDS011;15240;50.812;4.792;2024-01-25T00:49:18;54.30;;;9.00;;
27893;SDS011;15240;50.812;4.792;2024-01-25T00:51:46;53.27;;;9.17;;
27893;SDS011;15240;50.812;4.792;2024-01-25T00:54:13;60.13;;;10.10;;
27893;SDS011;15240;50.812;4.792;2024-01-25T00:56:39;63.07;;;9.60;;
27893;SDS011;15240;50.812;4.792;2024-01-25T00:59:06;54.60;;;9.90;;
27893;SDS011;15240;50.812;4.792;2024-01-25T01:01:32;59.40;;;9.40;;
27893;SDS011;15240;50.812;4.792;2024-01-25T01:03:58;62.60;;;9.77;;
27893;SDS011;15240;50.812;4.792;2024-01-25T01:06:25;57.03;;;9.60;;
27893;SDS011;15240;50.812;4.792;2024-01-25T01:08:51;64.03;;;8.80;;
27893;SDS011;15240;50.812;4.792;2024-01-25T01:11:18;62.20;;;9.20;;
27893;SDS011;15240;50.812;4.792;2024-01-25T01:13:44;53.03;;;8.67;;
27893;SDS011;15240;50.812;4.792;2024-01-25T01:16:10;57.53;;;9.57;;
27893;SDS011;15240;50.812;4.792;2024-01-25T01:18:36;58.03;;;9.60;;
27893;SDS011;15240;50.812;4.792;2024-01-25T01:21:03;55.57;;;9.57;;
27893;SDS011;15240;50.812;4.792;2024-01-25T01:23:29;57.43;;;9.97;;
27893;SDS011;15240;50.812;4.792;2024-01-25T01:25:56;52.83;;;8.47;;
27893;SDS011;15240;50.812;4.792;2024-01-25T01:28:22;46.43;;;8.93;;
27893;SDS011;15240;50.812;4.792;2024-01-25T01:30:48;51.80;;;8.33;;
27893;SDS011;15240;50.812;4.792;2024-01-25T01:33:14;57.57;;;8.80;;
27893;SDS011;15240;50.812;4.792;2024-01-25T01:35:40;49.53;;;9.13;;
27893;SDS011;15240;50.812;4.792;2024-01-25T01:38:06;48.50;;;8.13;;
27893;SDS011;15240;50.812;4.792;2024-01-25T01:40:33;58.27;;;8.93;;
27893;SDS011;15240;50.812;4.792;2024-01-25T01:43:00;55.30;;;9.27;;
27893;SDS011;15240;50.812;4.792;2024-01-25T01:45:27;51.50;;;8.93;;
27893;SDS011;15240;50.812;4.792;2024-01-25T01:47:53;60.77;;;8.27;;
27893;SDS011;15240;50.812;4.792;2024-01-25T01:50:20;56.10;;;9.23;;
27893;SDS011;15240;50.812;4.792;2024-01-25T01:52:46;51.60;;;8.27;;
27893;SDS011;15240;50.812;4.792;2024-01-25T01:55:12;53.63;;;8.73;;
27893;SDS011;15240;50.812;4.792;2024-01-25T01:57:38;51.47;;;9.13;;
27893;SDS011;15240;50.812;4.792;2024-01-25T02:00:06;60.97;;;8.80;;
27893;SDS011;15240;50.812;4.792;2024-01-25T02:02:33;52.03;;;8.77;;
27893;SDS011;15240;50.812;4.792;2024-01-25T02:04:59;56.03;;;8.63;;
27893;SDS011;15240;50.812;4.792;2024-01-25T02:07:26;58.23;;;8.67;;
27893;SDS011;15240;50.812;4.792;2024-01-25T02:09:52;50.80;;;8.57;;
27893;SDS011;15240;50.812;4.792;2024-01-25T02:12:18;51.40;;;8.90;;
27893;SDS011;15240;50.812;4.792;2024-01-25T02:14:44;49.23;;;8.33;;
27893;SDS011;15240;50.812;4.792;2024-01-25T02:17:10;48.07;;;8.50;;
27893;SDS011;15240;50.812;4.792;2024-01-25T02:19:37;67.47;;;9.23;;
27893;SDS011;15240;50.812;4.792;2024-01-25T02:22:04;48.53;;;9.00;;
27893;SDS011;15240;50.812;4.792;2024-01-25T02:24:30;53.93;;;8.83;;
27893;SDS011;15240;50.812;4.792;2024-01-25T02:26:56;48.43;;;8.40;;
27893;SDS011;15240;50.812;4.792;2024-01-25T02:29:22;64.97;;;8.97;;
27893;SDS011;15240;50.812;4.792;2024-01-25T02:31:48;58.40;;;9.10;;
27893;SDS011;15240;50.812;4.792;2024-01-25T02:34:14;44.63;;;8.37;;
27893;SDS011;15240;50.812;4.792;2024-01-25T02:36:40;56.37;;;9.03;;
27893;SDS011;15240;50.812;4.792;2024-01-25T02:39:06;53.07;;;9.13;;
27893;SDS011;15240;50.812;4.792;2024-01-25T02:41:33;66.53;;;9.80;;
27893;SDS011;15240;50.812;4.792;2024-01-25T02:43:59;55.23;;;8.97;;
27893;SDS011;15240;50.812;4.792;2024-01-25T02:46:26;63.30;;;10.63;;
27893;SDS011;15240;50.812;4.792;2024-01-25T02:48:52;70.27;;;9.33;;
27893;SDS011;15240;50.812;4.792;2024-01-25T02:51:18;67.97;;;9.53;;
27893;SDS011;15240;50.812;4.792;2024-01-25T02:53:44;58.50;;;8.53;;
27893;SDS011;15240;50.812;4.792;2024-01-25T02:56:10;53.40;;;8.17;;
27893;SDS011;15240;50.812;4.792;2024-01-25T02:58:36;60.20;;;9.77;;
27893;SDS011;15240;50.812;4.792;2024-01-25T03:01:03;66.43;;;9.17;;
27893;SDS011;15240;50.812;4.792;2024-01-25T03:03:29;54.50;;;8.50;;
27893;SDS011;15240;50.812;4.792;2024-01-25T03:05:55;53.93;;;8.70;;
27893;SDS011;15240;50.812;4.792;2024-01-25T03:08:21;55.67;;;8.80;;
27893;SDS011;15240;50.812;4.792;2024-01-25T03:10:47;66.33;;;9.90;;
27893;SDS011;15240;50.812;4.792;2024-01-25T03:13:14;62.77;;;9.53;;
27893;SDS011;15240;50.812;4.792;2024-01-25T03:15:41;55.10;;;9.07;;
27893;SDS011;15240;50.812;4.792;2024-01-25T03:18:09;60.93;;;8.77;;
27893;SDS011;15240;50.812;4.792;2024-01-25T03:20:35;71.93;;;9.67;;
27893;SDS011;15240;50.812;4.792;2024-01-25T03:23:01;67.37;;;9.27;;
27893;SDS011;15240;50.812;4.792;2024-01-25T03:25:27;50.93;;;8.73;;
27893;SDS011;15240;50.812;4.792;2024-01-25T03:27:53;52.23;;;8.57;;
27893;SDS011;15240;50.812;4.792;2024-01-25T03:30:19;57.40;;;8.37;;
27893;SDS011;15240;50.812;4.792;2024-01-25T03:32:46;55.03;;;8.70;;
27893;SDS011;15240;50.812;4.792;2024-01-25T03:35:12;58.23;;;9.10;;
27893;SDS011;15240;50.812;4.792;2024-01-25T03:37:38;57.13;;;8.27;;
27893;SDS011;15240;50.812;4.792;2024-01-25T03:40:05;55.60;;;8.80;;
27893;SDS011;15240;50.812;4.792;2024-01-25T03:42:31;54.23;;;8.50;;
27893;SDS011;15240;50.812;4.792;2024-01-25T03:44:57;49.90;;;8.03;;
27893;SDS011;15240;50.812;4.792;2024-01-25T03:47:23;47.03;;;7.57;;
27893;SDS011;15240;50.812;4.792;2024-01-25T03:49:49;46.87;;;7.80;;
27893;SDS011;15240;50.812;4.792;2024-01-25T03:52:15;70.80;;;9.97;;
27893;SDS011;15240;50.812;4.792;2024-01-25T03:54:41;51.83;;;8.87;;
27893;SDS011;15240;50.812;4.792;2024-01-25T03:57:07;54.63;;;9.00;;
27893;SDS011;15240;50.812;4.792;2024-01-25T03:59:33;60.20;;;8.93;;
27893;SDS011;15240;50.812;4.792;2024-01-25T04:01:59;48.33;;;8.90;;
27893;SDS011;15240;50.812;4.792;2024-01-25T04:04:25;44.13;;;8.53;;
27893;SDS011;15240;50.812;4.792;2024-01-25T04:06:51;53.20;;;8.73;;
27893;SDS011;15240;50.812;4.792;2024-01-25T04:09:17;45.07;;;8.13;;
27893;SDS011;15240;50.812;4.792;2024-01-25T04:11:43;64.97;;;8.83;;
27893;SDS011;15240;50.812;4.792;2024-01-25T04:14:09;51.10;;;8.73;;
27893;SDS011;15240;50.812;4.792;2024-01-25T04:16:35;68.13;;;9.47;;
27893;SDS011;15240;50.812;4.792;2024-01-25T04:19:03;80.50;;;9.83;;
27893;SDS011;15240;50.812;4.792;2024-01-25T04:21:29;58.07;;;8.80;;
27893;SDS011;15240;50.812;4.792;2024-01-25T04:23:55;46.73;;;8.37;;
27893;SDS011;15240;50.812;4.792;2024-01-25T04:26:21;48.87;;;8.27;;
27893;SDS011;15240;50.812;4.792;2024-01-25T04:28:47;53.57;;;8.20;;
27893;SDS011;15240;50.812;4.792;2024-01-25T04:31:13;51.23;;;8.33;;
27893;SDS011;15240;50.812;4.792;2024-01-25T04:33:39;55.77;;;8.33;;
27893;SDS011;15240;50.812;4.792;2024-01-25T04:36:05;43.53;;;7.80;;
27893;SDS011;15240;50.812;4.792;2024-01-25T04:38:31;52.23;;;9.03;;
27893;SDS011;15240;50.812;4.792;2024-01-25T04:40:57;58.37;;;8.80;;
27893;SDS011;15240;50.812;4.792;2024-01-25T04:43:23;52.97;;;9.30;;
27893;SDS011;15240;50.812;4.792;2024-01-25T04:45:49;55.40;;;8.63;;
27893;SDS011;15240;50.812;4.792;2024-01-25T04:48:15;64.30;;;10.00;;
27893;SDS011;15240;50.812;4.792;2024-01-25T04:50:41;77.40;;;9.73;;
27893;SDS011;15240;50.812;4.792;2024-01-25T04:53:07;62.17;;;10.90;;
27893;SDS011;15240;50.812;4.792;2024-01-25T04:55:34;70.43;;;9.47;;
27893;SDS011;15240;50.812;4.792;2024-01-25T04:58:00;71.80;;;9.77;;
27893;SDS011;15240;50.812;4.792;2024-01-25T05:00:26;55.43;;;9.20;;
27893;SDS011;15240;50.812;4.792;2024-01-25T05:02:52;51.50;;;9.07;;
27893;SDS011;15240;50.812;4.792;2024-01-25T05:05:18;64.10;;;8.80;;
27893;SDS011;15240;50.812;4.792;2024-01-25T05:07:45;67.50;;;9.47;;
27893;SDS011;15240;50.812;4.792;2024-01-25T05:10:11;60.43;;;9.83;;
27893;SDS011;15240;50.812;4.792;2024-01-25T05:12:37;61.57;;;9.40;;
27893;SDS011;15240;50.812;4.792;2024-01-25T05:15:03;55.47;;;8.37;;
27893;SDS011;15240;50.812;4.792;2024-01-25T05:17:31;64.00;;;9.17;;
27893;SDS011;15240;50.812;4.792;2024-01-25T05:19:57;58.30;;;9.40;;
27893;SDS011;15240;50.812;4.792;2024-01-25T05:22:23;63.00;;;9.37;;
27893;SDS011;15240;50.812;4.792;2024-01-25T05:24:49;57.17;;;8.57;;
27893;SDS011;15240;50.812;4.792;2024-01-25T05:27:15;58.70;;;9.37;;
27893;SDS011;15240;50.812;4.792;2024-01-25T05:29:41;63.23;;;10.33;;
27893;SDS011;15240;50.812;4.792;2024-01-25T05:32:07;84.93;;;11.93;;
27893;SDS011;15240;50.812;4.792;2024-01-25T05:34:33;61.03;;;8.63;;
27893;SDS011;15240;50.812;4.792;2024-01-25T05:36:59;56.40;;;9.00;;
27893;SDS011;15240;50.812;4.792;2024-01-25T05:39:26;68.00;;;10.53;;
27893;SDS011;15240;50.812;4.792;2024-01-25T05:41:52;56.97;;;9.47;;
27893;SDS011;15240;50.812;4.792;2024-01-25T05:44:18;54.27;;;8.57;;
27893;SDS011;15240;50.812;4.792;2024-01-25T05:46:44;50.97;;;8.27;;
27893;SDS011;15240;50.812;4.792;2024-01-25T05:49:10;51.57;;;8.17;;
27893;SDS011;15240;50.812;4.792;2024-01-25T05:51:36;56.27;;;8.67;;
27893;SDS011;15240;50.812;4.792;2024-01-25T05:54:02;53.33;;;8.50;;
27893;SDS011;15240;50.812;4.792;2024-01-25T05:56:29;73.80;;;10.40;;
27893;SDS011;15240;50.812;4.792;2024-01-25T05:58:55;82.70;;;10.67;;
27893;SDS011;15240;50.812;4.792;2024-01-25T06:01:21;74.13;;;10.90;;
27893;SDS011;15240;50.812;4.792;2024-01-25T06:03:47;63.83;;;9.73;;
27893;SDS011;15240;50.812;4.792;2024-01-25T06:06:13;63.17;;;10.07;;
27893;SDS011;15240;50.812;4.792;2024-01-25T06:08:39;61.27;;;9.77;;
27893;SDS011;15240;50.812;4.792;2024-01-25T06:11:05;57.93;;;10.40;;
27893;SDS011;15240;50.812;4.792;2024-01-25T06:13:31;63.97;;;10.13;;
27893;SDS011;15240;50.812;4.792;2024-01-25T06:15:57;76.43;;;10.73;;
27893;SDS011;15240;50.812;4.792;2024-01-25T06:18:23;65.20;;;11.00;;
27893;SDS011;15240;50.812;4.792;2024-01-25T06:20:50;76.83;;;10.80;;
27893;SDS011;15240;50.812;4.792;2024-01-25T06:23:16;65.97;;;10.07;;
27893;SDS011;15240;50.812;4.792;2024-01-25T06:25:42;62.07;;;10.50;;
27893;SDS011;15240;50.812;4.792;2024-01-25T06:28:08;68.37;;;10.37;;
27893;SDS011;15240;50.812;4.792;2024-01-25T06:30:34;77.10;;;12.23;;
27893;SDS011;15240;50.812;4.792;2024-01-25T06:33:00;75.30;;;12.03;;
27893;SDS011;15240;50.812;4.792;2024-01-25T06:35:27;92.03;;;12.70;;
27893;SDS011;15240;50.812;4.792;2024-01-25T06:37:53;76.43;;;12.03;;
27893;SDS011;15240;50.812;4.792;2024-01-25T06:40:19;90.03;;;12.53;;
27893;SDS011;15240;50.812;4.792;2024-01-25T06:42:45;79.23;;;10.50;;
27893;SDS011;15240;50.812;4.792;2024-01-25T06:45:11;79.60;;;10.87;;
27893;SDS011;15240;50.812;4.792;2024-01-25T06:47:37;64.43;;;10.37;;
27893;SDS011;15240;50.812;4.792;2024-01-25T06:50:03;84.40;;;12.53;;
27893;SDS011;15240;50.812;4.792;2024-01-25T06:52:29;84.13;;;12.80;;
27893;SDS011;15240;50.812;4.792;2024-01-25T06:54:55;71.97;;;11.53;;
27893;SDS011;15240;50.812;4.792;2024-01-25T06:57:21;84.83;;;13.23;;
27893;SDS011;15240;50.812;4.792;2024-01-25T06:59:48;95.97;;;13.13;;
27893;SDS011;15240;50.812;4.792;2024-01-25T07:02:14;98.90;;;13.13;;
27893;SDS011;15240;50.812;4.792;2024-01-25T07:04:40;94.13;;;13.93;;
27893;SDS011;15240;50.812;4.792;2024-01-25T07:07:06;94.80;;;13.77;;
27893;SDS011;15240;50.812;4.792;2024-01-25T07:09:32;98.57;;;14.13;;
27893;SDS011;15240;50.812;4.792;2024-01-25T07:11:58;91.20;;;11.90;;
27893;SDS011;15240;50.812;4.792;2024-01-25T07:14:25;80.67;;;12.80;;
27893;SDS011;15240;50.812;4.792;2024-01-25T07:16:51;88.10;;;12.97;;
27893;SDS011;15240;50.812;4.792;2024-01-25T07:19:17;64.73;;;13.20;;
27893;SDS011;15240;50.812;4.792;2024-01-25T07:21:43;81.00;;;15.03;;
27893;SDS011;15240;50.812;4.792;2024-01-25T07:24:10;99.67;;;14.37;;
27893;SDS011;15240;50.812;4.792;2024-01-25T07:26:36;94.17;;;14.77;;
27893;SDS011;15240;50.812;4.792;2024-01-25T07:29:03;92.73;;;15.07;;
27893;SDS011;15240;50.812;4.792;2024-01-25T07:31:29;105.03;;;17.00;;
27893;SDS011;15240;50.812;4.792;2024-01-25T07:33:55;128.97;;;17.93;;
27893;SDS011;15240;50.812;4.792;2024-01-25T07:36:21;118.50;;;16.77;;
27893;SDS011;15240;50.812;4.792;2024-01-25T07:38:47;132.83;;;18.90;;
27893;SDS011;15240;50.812;4.792;2024-01-25T07:41:14;138.80;;;19.53;;
27893;SDS011;15240;50.812;4.792;2024-01-25T07:43:40;164.43;;;20.53;;
27893;SDS011;15240;50.812;4.792;2024-01-25T07:46:06;145.63;;;19.53;;
27893;SDS011;15240;50.812;4.792;2024-01-25T07:48:32;140.43;;;19.97;;
27893;SDS011;15240;50.812;4.792;2024-01-25T07:50:59;126.93;;;17.80;;
27893;SDS011;15240;50.812;4.792;2024-01-25T07:53:25;123.87;;;18.57;;
27893;SDS011;15240;50.812;4.792;2024-01-25T07:55:51;196.97;;;22.10;;
27893;SDS011;15240;50.812;4.792;2024-01-25T07:58:17;183.47;;;23.13;;
27893;SDS011;15240;50.812;4.792;2024-01-25T08:00:46;183.77;;;23.33;;
27893;SDS011;15240;50.812;4.792;2024-01-25T08:03:12;194.90;;;23.37;;
27893;SDS011;15240;50.812;4.792;2024-01-25T08:05:38;148.17;;;20.73;;
27893;SDS011;15240;50.812;4.792;2024-01-25T08:08:04;204.00;;;23.93;;
27893;SDS011;15240;50.812;4.792;2024-01-25T08:10:30;159.93;;;20.97;;
27893;SDS011;15240;50.812;4.792;2024-01-25T08:12:56;178.63;;;20.70;;
27893;SDS011;15240;50.812;4.792;2024-01-25T08:15:24;178.23;;;21.03;;
27893;SDS011;15240;50.812;4.792;2024-01-25T08:17:50;119.00;;;17.67;;
27893;SDS011;15240;50.812;4.792;2024-01-25T08:20:18;146.20;;;20.17;;
27893;SDS011;15240;50.812;4.792;2024-01-25T08:22:44;143.20;;;19.00;;
27893;SDS011;15240;50.812;4.792;2024-01-25T08:25:10;150.43;;;20.67;;
27893;SDS011;15240;50.812;4.792;2024-01-25T08:27:38;121.50;;;19.13;;
27893;SDS011;15240;50.812;4.792;2024-01-25T08:30:05;133.07;;;18.93;;
27893;SDS011;15240;50.812;4.792;2024-01-25T08:32:31;130.63;;;20.27;;
27893;SDS011;15240;50.812;4.792;2024-01-25T08:34:57;169.17;;;21.73;;
27893;SDS011;15240;50.812;4.792;2024-01-25T08:37:23;137.67;;;20.23;;
27893;SDS011;15240;50.812;4.792;2024-01-25T08:39:49;89.53;;;17.53;;
27893;SDS011;15240;50.812;4.792;2024-01-25T08:42:16;151.43;;;21.60;;
27893;SDS011;15240;50.812;4.792;2024-01-25T08:44:42;119.63;;;20.47;;
27893;SDS011;15240;50.812;4.792;2024-01-25T08:47:14;118.17;;;21.77;;
27893;SDS011;15240;50.812;4.792;2024-01-25T08:49:40;119.00;;;23.83;;
27893;SDS011;15240;50.812;4.792;2024-01-25T08:52:07;103.97;;;23.23;;
27893;SDS011;15240;50.812;4.792;2024-01-25T08:54:33;103.43;;;21.33;;
27893;SDS011;15240;50.812;4.792;2024-01-25T08:56:59;102.40;;;21.83;;
27893;SDS011;15240;50.812;4.792;2024-01-25T08:59:26;106.87;;;22.10;;
27893;SDS011;15240;50.812;4.792;2024-01-25T09:01:53;86.63;;;19.77;;
27893;SDS011;15240;50.812;4.792;2024-01-25T09:04:19;84.60;;;19.67;;
27893;SDS011;15240;50.812;4.792;2024-01-25T09:06:45;88.47;;;19.23;;
27893;SDS011;15240;50.812;4.792;2024-01-25T09:09:11;78.63;;;19.03;;
27893;SDS011;15240;50.812;4.792;2024-01-25T09:11:37;85.33;;;18.73;;
27893;SDS011;15240;50.812;4.792;2024-01-25T09:14:03;94.77;;;19.73;;
27893;SDS011;15240;50.812;4.792;2024-01-25T09:16:29;85.63;;;20.13;;
27893;SDS011;15240;50.812;4.792;2024-01-25T09:18:55;82.67;;;20.33;;
27893;SDS011;15240;50.812;4.792;2024-01-25T09:21:22;98.73;;;21.17;;
27893;SDS011;15240;50.812;4.792;2024-01-25T09:23:48;82.63;;;20.17;;
27893;SDS011;15240;50.812;4.792;2024-01-25T09:26:14;67.50;;;18.80;;
27893;SDS011;15240;50.812;4.792;2024-01-25T09:28:40;105.47;;;21.47;;
27893;SDS011;15240;50.812;4.792;2024-01-25T09:31:06;112.50;;;22.57;;
27893;SDS011;15240;50.812;4.792;2024-01-25T09:33:32;88.67;;;20.73;;
27893;SDS011;15240;50.812;4.792;2024-01-25T09:35:58;80.37;;;21.80;;
27893;SDS011;15240;50.812;4.792;2024-01-25T09:38:25;89.07;;;21.93;;
27893;SDS011;15240;50.812;4.792;2024-01-25T09:40:51;92.63;;;23.63;;
27893;SDS011;15240;50.812;4.792;2024-01-25T09:43:17;83.90;;;22.60;;
27893;SDS011;15240;50.812;4.792;2024-01-25T09:45:45;96.03;;;22.43;;
27893;SDS011;15240;50.812;4.792;2024-01-25T09:48:12;81.97;;;21.27;;
27893;SDS011;15240;50.812;4.792;2024-01-25T09:50:38;83.63;;;21.60;;
27893;SDS011;15240;50.812;4.792;2024-01-25T09:53:04;77.07;;;21.27;;
27893;SDS011;15240;50.812;4.792;2024-01-25T09:55:32;80.23;;;21.93;;
27893;SDS011;15240;50.812;4.792;2024-01-25T09:57:59;78.90;;;21.00;;
27893;SDS011;15240;50.812;4.792;2024-01-25T10:00:25;69.63;;;19.33;;
27893;SDS011;15240;50.812;4.792;2024-01-25T10:02:51;71.43;;;22.40;;
27893;SDS011;15240;50.812;4.792;2024-01-25T10:05:17;76.07;;;22.80;;
27893;SDS011;15240;50.812;4.792;2024-01-25T10:07:44;70.30;;;20.67;;
27893;SDS011;15240;50.812;4.792;2024-01-25T10:10:11;74.10;;;20.93;;
27893;SDS011;15240;50.812;4.792;2024-01-25T10:12:37;68.70;;;19.87;;
27893;SDS011;15240;50.812;4.792;2024-01-25T10:15:04;66.37;;;20.70;;
27893;SDS011;15240;50.812;4.792;2024-01-25T10:17:31;67.43;;;19.80;;
27893;SDS011;15240;50.812;4.792;2024-01-25T10:19:57;69.30;;;21.07;;
27893;SDS011;15240;50.812;4.792;2024-01-25T10:22:24;76.57;;;20.80;;
27893;SDS011;15240;50.812;4.792;2024-01-25T10:24:50;74.27;;;21.73;;
27893;SDS011;15240;50.812;4.792;2024-01-25T10:27:18;69.57;;;20.60;;
27893;SDS011;15240;50.812;4.792;2024-01-25T10:29:44;64.40;;;20.37;;
27893;SDS011;15240;50.812;4.792;2024-01-25T10:32:10;81.10;;;21.93;;
27893;SDS011;15240;50.812;4.792;2024-01-25T10:34:36;70.33;;;21.30;;
27893;SDS011;15240;50.812;4.792;2024-01-25T10:37:03;59.77;;;19.80;;
27893;SDS011;15240;50.812;4.792;2024-01-25T10:39:31;72.37;;;21.27;;
27893;SDS011;15240;50.812;4.792;2024-01-25T10:41:58;71.93;;;21.43;;
27893;SDS011;15240;50.812;4.792;2024-01-25T10:44:24;74.43;;;22.03;;
27893;SDS011;15240;50.812;4.792;2024-01-25T10:46:50;73.63;;;20.47;;
27893;SDS011;15240;50.812;4.792;2024-01-25T10:49:17;57.20;;;19.30;;
27893;SDS011;15240;50.812;4.792;2024-01-25T10:51:43;72.33;;;21.13;;
27893;SDS011;15240;50.812;4.792;2024-01-25T10:54:13;74.23;;;20.43;;
27893;SDS011;15240;50.812;4.792;2024-01-25T10:56:43;65.80;;;20.40;;
27893;SDS011;15240;50.812;4.792;2024-01-25T10:59:13;73.23;;;20.97;;
27893;SDS011;15240;50.812;4.792;2024-01-25T11:01:44;62.63;;;20.07;;
27893;SDS011;15240;50.812;4.792;2024-01-25T11:04:17;65.23;;;20.43;;
27893;SDS011;15240;50.812;4.792;2024-01-25T11:06:44;69.07;;;21.63;;
27893;SDS011;15240;50.812;4.792;2024-01-25T11:09:14;73.43;;;22.77;;
27893;SDS011;15240;50.812;4.792;2024-01-25T11:11:43;66.23;;;21.43;;
27893;SDS011;15240;50.812;4.792;2024-01-25T11:14:13;61.07;;;21.40;;
27893;SDS011;15240;50.812;4.792;2024-01-25T11:16:41;65.27;;;21.70;;
27893;SDS011;15240;50.812;4.792;2024-01-25T11:19:15;62.37;;;20.10;;
27893;SDS011;15240;50.812;4.792;2024-01-25T11:21:42;65.67;;;20.47;;
27893;SDS011;15240;50.812;4.792;2024-01-25T11:24:11;55.10;;;19.13;;
27893;SDS011;15240;50.812;4.792;2024-01-25T11:26:38;53.23;;;17.47;;
27893;SDS011;15240;50.812;4.792;2024-01-25T11:29:04;48.50;;;16.37;;
27893;SDS011;15240;50.812;4.792;2024-01-25T11:31:30;52.50;;;15.73;;
27893;SDS011;15240;50.812;4.792;2024-01-25T11:34:00;54.63;;;16.23;;
27893;SDS011;15240;50.812;4.792;2024-01-25T11:36:27;58.10;;;16.40;;
27893;SDS011;15240;50.812;4.792;2024-01-25T11:38:53;45.67;;;14.77;;
27893;SDS011;15240;50.812;4.792;2024-01-25T11:41:20;49.00;;;15.90;;
27893;SDS011;15240;50.812;4.792;2024-01-25T11:43:50;46.67;;;14.70;;
27893;SDS011;15240;50.812;4.792;2024-01-25T11:46:16;48.50;;;15.80;;
27893;SDS011;15240;50.812;4.792;2024-01-25T11:48:43;48.33;;;14.53;;
27893;SDS011;15240;50.812;4.792;2024-01-25T11:51:10;46.67;;;15.40;;
27893;SDS011;15240;50.812;4.792;2024-01-25T11:53:37;43.23;;;14.40;;
27893;SDS011;15240;50.812;4.792;2024-01-25T11:56:04;44.30;;;14.97;;
27893;SDS011;15240;50.812;4.792;2024-01-25T11:58:31;42.63;;;14.80;;
27893;SDS011;15240;50.812;4.792;2024-01-25T12:00:57;49.27;;;15.60;;
27893;SDS011;15240;50.812;4.792;2024-01-25T12:03:24;42.83;;;14.40;;
27893;SDS011;15240;50.812;4.792;2024-01-25T12:05:51;45.30;;;15.03;;
27893;SDS011;15240;50.812;4.792;2024-01-25T12:08:17;44.03;;;15.23;;
27893;SDS011;15240;50.812;4.792;2024-01-25T12:10:43;45.83;;;15.67;;
27893;SDS011;15240;50.812;4.792;2024-01-25T12:13:09;43.17;;;14.83;;
27893;SDS011;15240;50.812;4.792;2024-01-25T12:15:35;47.00;;;15.33;;
27893;SDS011;15240;50.812;4.792;2024-01-25T12:18:01;44.27;;;15.27;;
27893;SDS011;15240;50.812;4.792;2024-01-25T12:20:28;48.30;;;14.67;;
27893;SDS011;15240;50.812;4.792;2024-01-25T12:22:54;51.73;;;14.73;;
27893;SDS011;15240;50.812;4.792;2024-01-25T12:25:23;45.00;;;15.37;;
27893;SDS011;15240;50.812;4.792;2024-01-25T12:27:49;43.50;;;14.77;;
27893;SDS011;15240;50.812;4.792;2024-01-25T12:30:16;44.50;;;14.43;;
27893;SDS011;15240;50.812;4.792;2024-01-25T12:32:42;43.83;;;14.17;;
27893;SDS011;15240;50.812;4.792;2024-01-25T12:35:08;42.93;;;13.63;;
27893;SDS011;15240;50.812;4.792;2024-01-25T12:37:34;39.23;;;13.37;;
27893;SDS011;15240;50.812;4.792;2024-01-25T12:40:00;46.57;;;14.13;;
27893;SDS011;15240;50.812;4.792;2024-01-25T12:42:27;40.40;;;12.57;;
27893;SDS011;15240;50.812;4.792;2024-01-25T12:44:53;37.23;;;12.87;;
27893;SDS011;15240;50.812;4.792;2024-01-25T12:47:19;35.87;;;11.67;;
27893;SDS011;15240;50.812;4.792;2024-01-25T12:49:46;42.87;;;12.27;;
27893;SDS011;15240;50.812;4.792;2024-01-25T12:52:13;40.27;;;12.17;;
27893;SDS011;15240;50.812;4.792;2024-01-25T12:54:39;35.37;;;12.03;;
27893;SDS011;15240;50.812;4.792;2024-01-25T12:57:06;40.77;;;11.67;;
27893;SDS011;15240;50.812;4.792;2024-01-25T12:59:32;31.40;;;10.87;;
27893;SDS011;15240;50.812;4.792;2024-01-25T13:01:59;34.13;;;11.97;;
27893;SDS011;15240;50.812;4.792;2024-01-25T13:04:25;34.40;;;11.23;;
27893;SDS011;15240;50.812;4.792;2024-01-25T13:06:52;32.33;;;11.57;;
27893;SDS011;15240;50.812;4.792;2024-01-25T13:09:19;33.20;;;11.63;;
27893;SDS011;15240;50.812;4.792;2024-01-25T13:11:46;31.10;;;11.80;;
27893;SDS011;15240;50.812;4.792;2024-01-25T13:14:12;28.53;;;10.93;;
27893;SDS011;15240;50.812;4.792;2024-01-25T13:16:38;27.47;;;10.10;;
27893;SDS011;15240;50.812;4.792;2024-01-25T13:19:04;32.47;;;10.83;;
27893;SDS011;15240;50.812;4.792;2024-01-25T13:21:31;35.33;;;11.13;;
27893;SDS011;15240;50.812;4.792;2024-01-25T13:23:58;22.80;;;9.83;;
27893;SDS011;15240;50.812;4.792;2024-01-25T13:26:24;24.70;;;9.70;;
27893;SDS011;15240;50.812;4.792;2024-01-25T13:28:51;23.80;;;10.40;;
27893;SDS011;15240;50.812;4.792;2024-01-25T13:31:17;23.33;;;9.67;;
27893;SDS011;15240;50.812;4.792;2024-01-25T13:33:43;24.10;;;9.23;;
27893;SDS011;15240;50.812;4.792;2024-01-25T13:36:10;21.83;;;8.77;;
27893;SDS011;15240;50.812;4.792;2024-01-25T13:38:38;22.23;;;9.03;;
27893;SDS011;15240;50.812;4.792;2024-01-25T13:41:05;22.57;;;9.47;;
27893;SDS011;15240;50.812;4.792;2024-01-25T13:43:31;18.53;;;8.73;;
27893;SDS011;15240;50.812;4.792;2024-01-25T13:45:57;19.43;;;8.83;;
27893;SDS011;15240;50.812;4.792;2024-01-25T13:48:23;19.87;;;8.47;;
27893;SDS011;15240;50.812;4.792;2024-01-25T13:50:49;14.67;;;8.17;;
27893;SDS011;15240;50.812;4.792;2024-01-25T13:53:15;15.63;;;8.47;;
27893;SDS011;15240;50.812;4.792;2024-01-25T13:55:42;18.70;;;8.43;;
27893;SDS011;15240;50.812;4.792;2024-01-25T13:58:08;16.87;;;7.80;;
27893;SDS011;15240;50.812;4.792;2024-01-25T14:00:34;18.17;;;8.30;;
27893;SDS011;15240;50.812;4.792;2024-01-25T14:03:00;16.30;;;7.97;;
27893;SDS011;15240;50.812;4.792;2024-01-25T14:05:27;16.20;;;8.30;;
27893;SDS011;15240;50.812;4.792;2024-01-25T14:07:53;15.93;;;8.10;;
27893;SDS011;15240;50.812;4.792;2024-01-25T14:10:19;14.03;;;7.33;;
27893;SDS011;15240;50.812;4.792;2024-01-25T14:12:45;18.10;;;7.50;;
27893;SDS011;15240;50.812;4.792;2024-01-25T14:15:11;14.03;;;7.77;;
27893;SDS011;15240;50.812;4.792;2024-01-25T14:17:37;14.57;;;7.60;;
27893;SDS011;15240;50.812;4.792;2024-01-25T14:20:04;15.53;;;8.17;;